createdAt,value
2022-07-27T00:00:10.203Z,86.53
2022-07-27T00:03:02.693Z,87.65
2022-07-27T00:05:51.191Z,88.37
2022-07-27T00:08:39.684Z,88.67
2022-07-27T00:11:28.078Z,87.43
2022-07-27T00:14:16.522Z,86.70
2022-07-27T00:17:04.869Z,87.30
2022-07-27T00:19:54.708Z,88.70
2022-07-27T00:22:43.136Z,87.93
2022-07-27T00:25:31.438Z,85.40
2022-07-27T00:28:19.850Z,85.73
2022-07-27T00:31:08.229Z,84.30
2022-07-27T00:33:56.633Z,86.00
2022-07-27T00:36:46.432Z,84.70
2022-07-27T00:39:36.524Z,84.40
2022-07-27T00:42:28.145Z,84.57
2022-07-27T00:45:16.616Z,84.90
2022-07-27T00:48:05.828Z,85.00
2022-07-27T00:50:54.186Z,84.70
2022-07-27T00:53:44.440Z,83.80
2022-07-27T00:56:32.812Z,83.47
2022-07-27T00:59:21.641Z,84.10
2022-07-27T01:02:11.172Z,84.17
2022-07-27T01:05:00.726Z,83.53
2022-07-27T01:07:50.270Z,85.40
2022-07-27T01:10:40.545Z,86.53
2022-07-27T01:13:29.247Z,86.00
2022-07-27T01:16:17.656Z,88.87
2022-07-27T01:19:06.181Z,85.17
2022-07-27T01:21:56.481Z,86.67
2022-07-27T01:24:45.079Z,85.83
2022-07-27T01:27:33.467Z,84.93
2022-07-27T01:30:31.311Z,85.30
2022-07-27T01:33:25.828Z,84.50
2022-07-27T01:36:14.253Z,83.83
2022-07-27T01:39:04.208Z,84.40
2022-07-27T01:41:52.557Z,83.43
2022-07-27T01:44:40.899Z,83.37
2022-07-27T01:47:29.292Z,84.53
2022-07-27T01:50:17.887Z,86.00
2022-07-27T01:53:09.106Z,87.30
2022-07-27T01:55:59.968Z,85.57
2022-07-27T01:58:48.363Z,87.00
2022-07-27T02:01:36.809Z,90.93
2022-07-27T02:04:25.229Z,90.37
2022-07-27T02:07:13.560Z,90.40
2022-07-27T02:10:01.992Z,93.80
2022-07-27T02:12:52.730Z,92.53
2022-07-27T02:15:44.585Z,92.60
2022-07-27T02:18:36.453Z,92.67
2022-07-27T02:21:26.146Z,91.13
2022-07-27T02:24:14.586Z,91.90
2022-07-27T02:27:03.022Z,93.00
2022-07-27T02:29:53.852Z,92.07
2022-07-27T02:32:44.321Z,92.83
2022-07-27T02:35:32.855Z,93.33
2022-07-27T02:38:21.163Z,91.57
2022-07-27T02:41:09.519Z,93.90
2022-07-27T02:43:58.269Z,92.33
2022-07-27T02:46:48.040Z,95.33
2022-07-27T02:49:36.481Z,96.20
2022-07-27T02:52:24.844Z,94.17
2022-07-27T02:55:13.462Z,95.03
2022-07-27T02:58:01.893Z,97.67
2022-07-27T03:00:52.562Z,94.70
2022-07-27T03:03:46.078Z,93.97
2022-07-27T03:06:34.538Z,93.03
2022-07-27T03:09:32.720Z,91.20
2022-07-27T03:12:21.836Z,89.10
2022-07-27T03:15:11.484Z,87.50
2022-07-27T03:17:59.885Z,85.93
2022-07-27T03:20:49.956Z,85.67
2022-07-27T03:23:38.886Z,83.60
2022-07-27T03:26:30.649Z,82.77
2022-07-27T03:29:19.003Z,81.87
2022-07-27T03:32:07.987Z,80.50
2022-07-27T03:34:56.441Z,79.97
2022-07-27T03:37:46.326Z,78.63
2022-07-27T03:40:35.134Z,78.07
2022-07-27T03:43:23.450Z,77.77
2022-07-27T03:46:12.861Z,79.07
2022-07-27T03:49:01.649Z,78.70
2022-07-27T03:52:02.804Z,76.23
2022-07-27T03:54:52.503Z,77.33
2022-07-27T03:57:41.187Z,76.27
2022-07-27T04:00:29.898Z,76.70
2022-07-27T04:03:18.647Z,76.03
2022-07-27T04:06:07.158Z,74.57
2022-07-27T04:08:59.648Z,73.27
2022-07-27T04:11:58.220Z,72.77
2022-07-27T04:14:47.937Z,72.57
2022-07-27T04:17:53.534Z,71.93
2022-07-27T04:20:44.715Z,72.40
2022-07-27T04:23:37.819Z,70.83
2022-07-27T04:26:26.583Z,72.27
2022-07-27T04:29:20.505Z,70.23
2022-07-27T04:32:09.607Z,68.43
2022-07-27T04:34:57.917Z,69.30
2022-07-27T04:37:57.764Z,68.83
2022-07-27T04:40:47.981Z,67.67
2022-07-27T04:43:36.431Z,67.53
2022-07-27T04:46:26.328Z,65.60
2022-07-27T04:49:15.276Z,63.90
2022-07-27T04:52:03.817Z,64.10
2022-07-27T04:54:53.330Z,64.23
2022-07-27T04:57:42.401Z,61.73
2022-07-27T05:00:30.940Z,64.90
2022-07-27T05:03:20.978Z,62.50
2022-07-27T05:06:09.377Z,63.65
2022-07-27T05:08:57.733Z,65.07
2022-07-27T05:11:51.089Z,64.70
2022-07-27T05:14:40.587Z,65.00
2022-07-27T05:17:29.121Z,62.97
2022-07-27T05:20:18.941Z,61.70
2022-07-27T05:23:07.346Z,62.28
2022-07-27T05:25:55.731Z,59.95
2022-07-27T05:28:44.156Z,58.58
2022-07-27T05:31:32.798Z,57.97
2022-07-27T05:34:21.251Z,58.08
2022-07-27T05:37:11.098Z,55.47
2022-07-27T05:39:59.481Z,53.75
2022-07-27T05:42:48.049Z,52.05
2022-07-27T05:45:36.432Z,49.88
2022-07-27T05:48:25.195Z,48.80
2022-07-27T05:51:13.574Z,48.05
2022-07-27T05:54:03.324Z,47.22
2022-07-27T05:56:52.401Z,43.92
2022-07-27T05:59:40.753Z,42.20
2022-07-27T06:02:31.705Z,42.55
2022-07-27T06:05:20.026Z,41.22
2022-07-27T06:08:08.997Z,40.88
2022-07-27T06:10:58.711Z,39.88
2022-07-27T06:13:47.296Z,38.78
2022-07-27T06:16:38.427Z,38.47
2022-07-27T06:19:36.445Z,37.55
2022-07-27T06:22:25.315Z,36.40
2022-07-27T06:25:13.904Z,35.55
2022-07-27T06:28:04.567Z,36.20
2022-07-27T06:30:54.538Z,34.72
2022-07-27T06:33:45.376Z,34.63
2022-07-27T06:36:36.647Z,34.60
2022-07-27T06:39:25.039Z,32.50
2022-07-27T06:42:14.581Z,32.00
2022-07-27T06:45:04.767Z,31.48
2022-07-27T06:47:53.095Z,31.27
2022-07-27T06:50:41.555Z,29.95
2022-07-27T06:53:29.883Z,28.75
2022-07-27T06:56:25.094Z,28.33
2022-07-27T06:59:13.975Z,25.10
2022-07-27T07:02:03.987Z,27.05
2022-07-27T07:04:52.379Z,27.38
2022-07-27T07:07:40.653Z,25.33
2022-07-27T07:10:29.244Z,26.90
2022-07-27T07:13:17.749Z,25.88
2022-07-27T07:16:06.878Z,27.85
2022-07-27T07:18:56.687Z,24.60
2022-07-27T07:21:45.054Z,23.05
2022-07-27T07:24:33.736Z,25.52
2022-07-27T07:27:23.617Z,24.85
2022-07-27T07:30:13.348Z,26.02
2022-07-27T07:33:03.118Z,24.95
2022-07-27T07:36:12.199Z,25.63
2022-07-27T07:39:01.420Z,22.60
2022-07-27T07:41:49.778Z,24.90
2022-07-27T07:44:38.432Z,23.67
2022-07-27T07:47:27.933Z,24.35
2022-07-27T07:50:16.781Z,23.27
2022-07-27T07:53:06.589Z,21.40
2022-07-27T07:55:56.354Z,18.20
2022-07-27T07:58:44.709Z,18.15
2022-07-27T08:01:33.228Z,19.20
2022-07-27T08:04:21.737Z,23.27
2022-07-27T08:07:10.150Z,21.40
2022-07-27T08:09:59.892Z,20.35
2022-07-27T08:12:50.688Z,19.45
2022-07-27T08:15:39.111Z,19.45
2022-07-27T08:18:27.453Z,21.67
2022-07-27T08:21:15.874Z,22.10
2022-07-27T08:24:04.774Z,20.98
2022-07-27T08:26:54.533Z,20.83
2022-07-27T08:29:42.846Z,19.77
2022-07-27T08:32:31.318Z,19.35
2022-07-27T08:35:20.830Z,19.33
2022-07-27T08:38:10.522Z,17.67
2022-07-27T08:41:03.296Z,20.40
2022-07-27T08:43:55.748Z,19.58
2022-07-27T08:46:46.813Z,20.45
2022-07-27T08:49:42.962Z,19.20
2022-07-27T08:52:33.123Z,18.58
2022-07-27T08:55:22.049Z,19.30
2022-07-27T08:58:11.608Z,17.80
2022-07-27T09:01:01.440Z,17.08
2022-07-27T09:03:49.810Z,15.55
2022-07-27T09:06:42.573Z,16.92
2022-07-27T09:09:45.934Z,15.50
2022-07-27T09:12:35.404Z,16.42
2022-07-27T09:15:23.916Z,16.65
2022-07-27T09:18:19.900Z,15.00
2022-07-27T09:21:14.775Z,14.43
2022-07-27T09:24:23.569Z,15.32
2022-07-27T09:27:31.200Z,14.30
2022-07-27T09:30:21.549Z,13.20
2022-07-27T09:33:09.894Z,13.85
2022-07-27T09:36:00.647Z,14.30
2022-07-27T09:38:58.580Z,14.77
2022-07-27T09:41:52.667Z,13.52
2022-07-27T09:44:44.765Z,14.32
2022-07-27T09:47:34.593Z,12.90
2022-07-27T09:50:31.070Z,13.38
2022-07-27T09:53:42.469Z,12.35
2022-07-27T09:56:33.666Z,11.13
2022-07-27T09:59:22.022Z,13.20
2022-07-27T10:02:13.271Z,12.48
2022-07-27T10:05:02.697Z,12.63
2022-07-27T10:07:52.597Z,11.90
2022-07-27T10:10:42.442Z,11.70
2022-07-27T10:13:30.836Z,11.20
2022-07-27T10:16:22.437Z,11.10
2022-07-27T10:19:15.471Z,11.25
2022-07-27T10:22:03.896Z,11.30
2022-07-27T10:25:00.500Z,10.65
2022-07-27T10:28:08.877Z,12.52
2022-07-27T10:31:17.508Z,10.85
2022-07-27T10:34:07.275Z,10.88
2022-07-27T10:36:55.599Z,11.25
2022-07-27T10:39:45.483Z,10.48
2022-07-27T10:42:33.935Z,10.32
2022-07-27T10:45:23.917Z,9.80
2022-07-27T10:48:36.164Z,10.02
2022-07-27T10:51:36.177Z,10.95
2022-07-27T10:54:27.518Z,10.38
2022-07-27T10:57:27.562Z,10.10
2022-07-27T11:00:19.733Z,9.82
2022-07-27T11:03:09.975Z,8.95
2022-07-27T11:06:04.722Z,8.52
2022-07-27T11:12:13.846Z,7.88
2022-07-27T11:15:02.457Z,8.38
2022-07-27T11:18:03.473Z,7.93
2022-07-27T11:20:54.761Z,8.77
2022-07-27T11:23:51.654Z,7.45
2022-07-27T11:26:42.329Z,7.50
2022-07-27T11:29:35.622Z,7.88
2022-07-27T11:32:28.469Z,9.38
2022-07-27T11:35:20.162Z,8.25
2022-07-27T11:38:10.196Z,8.27
2022-07-27T11:41:12.667Z,8.80
2022-07-27T11:44:09.929Z,8.27
2022-07-27T11:47:01.883Z,8.48
2022-07-27T11:49:50.684Z,8.77
2022-07-27T11:52:39.407Z,9.20
2022-07-27T11:55:29.237Z,7.65
2022-07-27T11:58:18.614Z,8.20
2022-07-27T12:01:07.975Z,6.90
2022-07-27T12:04:14.320Z,7.40
2022-07-27T12:07:06.821Z,7.47
2022-07-27T12:09:57.009Z,7.20
2022-07-27T12:12:50.432Z,5.80
2022-07-27T12:15:46.955Z,6.72
2022-07-27T12:18:42.961Z,6.32
2022-07-27T12:21:31.854Z,5.90
2022-07-27T12:24:20.825Z,6.20
2022-07-27T12:27:13.875Z,6.93
2022-07-27T12:30:11.389Z,7.95
2022-07-27T12:33:00.201Z,6.70
2022-07-27T12:35:49.766Z,9.90
2022-07-27T12:38:39.807Z,5.90
2022-07-27T12:41:30.010Z,5.35
2022-07-27T12:44:18.415Z,5.95
2022-07-27T12:47:27.910Z,6.13
2022-07-27T12:50:18.794Z,6.20
2022-07-27T12:53:07.845Z,6.93
2022-07-27T12:55:57.815Z,7.40
2022-07-27T12:58:59.398Z,7.20
2022-07-27T13:01:47.890Z,5.90
2022-07-27T13:04:37.722Z,5.68
2022-07-27T13:07:26.706Z,5.85
2022-07-27T13:10:18.428Z,5.80
2022-07-27T13:13:07.338Z,6.13
2022-07-27T13:15:55.995Z,6.22
2022-07-27T13:18:44.505Z,6.25
2022-07-27T13:21:34.572Z,6.20
2022-07-27T13:24:23.091Z,6.22
2022-07-27T13:27:11.503Z,7.25
2022-07-27T13:30:00.254Z,6.00
2022-07-27T13:32:49.073Z,6.45
2022-07-27T13:35:37.478Z,6.60
2022-07-27T13:38:28.773Z,5.78
2022-07-27T13:41:17.238Z,6.00
2022-07-27T13:44:06.261Z,5.45
2022-07-27T13:46:54.647Z,6.88
2022-07-27T13:49:42.981Z,8.68
2022-07-27T13:52:31.357Z,6.13
2022-07-27T13:55:24.865Z,6.53
2022-07-27T13:58:21.731Z,8.80
2022-07-27T14:01:10.289Z,6.50
2022-07-27T14:03:59.354Z,5.78
2022-07-27T14:06:47.978Z,5.78
2022-07-27T14:09:54.009Z,6.15
2022-07-27T14:12:43.816Z,6.15
2022-07-27T14:15:32.362Z,8.18
2022-07-27T14:18:20.703Z,6.25
2022-07-27T14:21:10.655Z,5.82
2022-07-27T14:24:00.903Z,6.40
2022-07-27T14:26:49.275Z,6.18
2022-07-27T14:29:39.146Z,6.10
2022-07-27T14:32:27.814Z,5.97
2022-07-27T14:35:16.181Z,7.07
2022-07-27T14:38:04.853Z,6.65
2022-07-27T14:40:55.006Z,6.57
2022-07-27T14:43:43.910Z,8.30
2022-07-27T14:46:33.762Z,6.60
2022-07-27T14:49:22.788Z,7.65
2022-07-27T14:52:14.378Z,6.10
2022-07-27T14:55:03.033Z,7.00
2022-07-27T14:57:53.792Z,7.05
2022-07-27T15:00:42.375Z,6.75
2022-07-27T15:03:32.249Z,6.70
2022-07-27T15:06:20.597Z,7.63
2022-07-27T15:09:09.137Z,7.05
2022-07-27T15:11:58.053Z,6.10
2022-07-27T15:14:46.527Z,6.40
2022-07-27T15:17:37.581Z,7.10
2022-07-27T15:20:27.636Z,6.35
2022-07-27T15:23:16.240Z,6.32
2022-07-27T15:26:04.902Z,5.78
2022-07-27T15:28:53.296Z,4.93
2022-07-27T15:31:41.847Z,5.15
2022-07-27T15:34:30.405Z,6.30
2022-07-27T15:37:20.188Z,5.72
2022-07-27T15:40:27.072Z,5.15
2022-07-27T15:43:17.289Z,5.57
2022-07-27T15:46:05.651Z,5.53
2022-07-27T15:48:54.288Z,6.32
2022-07-27T15:51:43.244Z,5.53
2022-07-27T15:54:38.203Z,6.20
2022-07-27T15:57:30.775Z,6.30
2022-07-27T16:00:19.715Z,6.28
2022-07-27T16:03:08.280Z,6.72
2022-07-27T16:05:57.077Z,6.25
2022-07-27T16:08:45.734Z,6.15
2022-07-27T16:11:35.658Z,6.95
2022-07-27T16:14:24.083Z,5.40
2022-07-27T16:17:12.540Z,6.50
2022-07-27T16:20:00.998Z,6.90
2022-07-27T16:22:49.325Z,5.53
2022-07-27T16:26:01.278Z,5.50
2022-07-27T16:28:49.585Z,5.22
2022-07-27T16:31:38.045Z,5.63
2022-07-27T16:34:27.808Z,5.35
2022-07-27T16:37:16.229Z,5.25
2022-07-27T16:40:05.409Z,5.25
2022-07-27T16:42:53.785Z,5.22
2022-07-27T16:45:43.573Z,4.72
2022-07-27T16:48:36.802Z,4.90
2022-07-27T16:51:31.014Z,5.20
2022-07-27T16:54:19.563Z,5.20
2022-07-27T16:57:07.922Z,5.75
2022-07-27T16:59:56.605Z,5.90
2022-07-27T17:02:46.353Z,5.43
2022-07-27T17:05:35.155Z,6.30
2022-07-27T17:08:27.765Z,5.18
2022-07-27T17:11:17.638Z,5.70
2022-07-27T17:14:12.003Z,5.00
2022-07-27T17:17:00.438Z,5.43
2022-07-27T17:19:50.186Z,4.90
2022-07-27T17:22:38.673Z,4.65
2022-07-27T17:25:27.068Z,5.28
2022-07-27T17:28:15.471Z,5.65
2022-07-27T17:31:05.075Z,5.80
2022-07-27T17:33:54.495Z,6.43
2022-07-27T17:36:44.303Z,6.70
2022-07-27T17:39:32.805Z,6.47
2022-07-27T17:42:23.388Z,6.50
2022-07-27T17:45:11.873Z,6.53
2022-07-27T17:48:00.323Z,4.82
2022-07-27T17:50:48.725Z,3.65
2022-07-27T17:53:39.096Z,5.90
2022-07-27T17:56:27.490Z,3.95
2022-07-27T17:59:36.707Z,3.95
2022-07-27T18:02:25.703Z,5.88
2022-07-27T18:05:14.663Z,4.40
2022-07-27T18:08:03.096Z,3.47
2022-07-27T18:10:52.936Z,3.75
2022-07-27T18:13:41.952Z,5.45
2022-07-27T18:16:31.879Z,3.65
2022-07-27T18:19:23.377Z,4.22
2022-07-27T18:22:11.677Z,5.40
2022-07-27T18:25:00.096Z,9.15
2022-07-27T18:27:50.203Z,3.22
2022-07-27T18:30:38.811Z,3.85
2022-07-27T18:33:27.619Z,3.70
2022-07-27T18:36:25.824Z,4.18
2022-07-27T18:39:14.414Z,3.67
2022-07-27T18:42:03.976Z,6.43
2022-07-27T18:44:53.802Z,3.88
2022-07-27T18:47:49.086Z,3.72
2022-07-27T18:50:39.584Z,3.92
2022-07-27T18:53:28.463Z,4.40
2022-07-27T18:56:16.854Z,3.85
2022-07-27T18:59:05.266Z,3.95
2022-07-27T19:01:55.037Z,4.47
2022-07-27T19:04:44.554Z,6.13
2022-07-27T19:07:33.187Z,4.30
2022-07-27T19:10:25.204Z,4.90
2022-07-27T19:13:14.113Z,4.80
2022-07-27T19:16:02.553Z,4.75
2022-07-27T19:18:52.920Z,4.80
2022-07-27T19:21:41.455Z,5.13
2022-07-27T19:24:29.895Z,5.13
2022-07-27T19:27:18.448Z,5.50
2022-07-27T19:30:08.024Z,5.20
2022-07-27T19:32:56.615Z,5.20
2022-07-27T19:35:46.608Z,5.28
2022-07-27T19:38:35.270Z,6.10
2022-07-27T19:41:23.664Z,5.18
2022-07-27T19:44:12.143Z,5.15
2022-07-27T19:47:00.825Z,5.10
2022-07-27T19:49:49.313Z,4.90
2022-07-27T19:52:39.031Z,4.70
2022-07-27T19:55:27.674Z,4.80
2022-07-27T19:58:16.254Z,4.95
2022-07-27T20:01:04.929Z,5.03
2022-07-27T20:03:58.198Z,4.90
2022-07-27T20:06:46.563Z,5.25
2022-07-27T20:09:36.319Z,4.57
2022-07-27T20:12:25.495Z,5.47
2022-07-27T20:15:13.937Z,5.60
2022-07-27T20:18:02.563Z,5.07
2022-07-27T20:20:50.973Z,5.82
2022-07-27T20:23:44.664Z,4.53
2022-07-27T20:26:34.495Z,5.20
2022-07-27T20:29:23.112Z,5.88
2022-07-27T20:32:12.737Z,5.47
2022-07-27T20:35:01.374Z,4.85
2022-07-27T20:37:49.796Z,5.60
2022-07-27T20:40:38.155Z,5.90
2022-07-27T20:43:27.934Z,5.80
2022-07-27T20:46:16.347Z,5.90
2022-07-27T20:49:04.995Z,6.28
2022-07-27T20:51:53.444Z,6.05
2022-07-27T20:54:41.835Z,6.53
2022-07-27T20:57:30.247Z,6.60
2022-07-27T21:00:21.821Z,6.95
2022-07-27T21:03:11.921Z,7.60
2022-07-27T21:06:00.287Z,7.43
2022-07-27T21:08:48.636Z,8.07
2022-07-27T21:11:37.101Z,7.28
2022-07-27T21:14:25.611Z,8.50
2022-07-27T21:17:15.375Z,7.40
2022-07-27T21:20:03.819Z,8.70
2022-07-27T21:23:12.865Z,8.93
2022-07-27T21:26:01.253Z,9.43
2022-07-27T21:28:49.623Z,9.45
2022-07-27T21:31:38.268Z,9.07
2022-07-27T21:34:27.960Z,9.57
2022-07-27T21:37:16.347Z,10.30
2022-07-27T21:40:05.094Z,8.95
2022-07-27T21:42:53.411Z,9.95
2022-07-27T21:45:48.349Z,8.98
2022-07-27T21:48:38.310Z,9.48
2022-07-27T21:51:28.031Z,9.60
2022-07-27T21:54:17.063Z,10.40
2022-07-27T21:57:06.468Z,9.55
2022-07-27T21:59:54.854Z,10.90
2022-07-27T22:02:43.291Z,9.90
2022-07-27T22:05:31.753Z,10.40
2022-07-27T22:08:21.529Z,9.75
2022-07-27T22:11:10.289Z,10.27
2022-07-27T22:13:58.633Z,10.65
2022-07-27T22:16:47.179Z,10.82
2022-07-27T22:19:35.639Z,11.07
2022-07-27T22:22:24.039Z,10.60
2022-07-27T22:25:14.763Z,10.85
2022-07-27T22:28:03.225Z,11.55
2022-07-27T22:31:20.575Z,10.73
2022-07-27T22:33:59.933Z,10.93
2022-07-27T22:36:48.257Z,10.20
2022-07-27T22:39:36.611Z,9.18
2022-07-27T22:42:28.580Z,9.05
2022-07-27T22:45:17.312Z,8.95
2022-07-27T22:48:06.193Z,9.07
2022-07-27T22:50:54.542Z,8.77
2022-07-27T22:53:42.921Z,8.88
2022-07-27T22:56:31.365Z,8.20
2022-07-27T22:59:21.166Z,8.18
2022-07-27T23:02:09.618Z,8.02
2022-07-27T23:04:57.954Z,7.53
2022-07-27T23:07:46.360Z,7.70
2022-07-27T23:10:46.742Z,7.30
2022-07-27T23:13:35.066Z,6.95
2022-07-27T23:16:24.848Z,7.38
2022-07-27T23:19:13.408Z,7.03
2022-07-27T23:22:01.889Z,7.70
2022-07-27T23:24:50.256Z,7.10
2022-07-27T23:27:40.042Z,6.93
2022-07-27T23:30:28.423Z,6.60
2022-07-27T23:33:18.269Z,6.60
2022-07-27T23:36:06.827Z,6.57
2022-07-27T23:38:55.192Z,6.75
2022-07-27T23:41:49.409Z,7.22
2022-07-27T23:44:38.269Z,6.40
2022-07-27T23:47:26.632Z,6.25
2022-07-27T23:50:17.261Z,6.40
2022-07-27T23:53:05.702Z,6.45
2022-07-27T23:55:57.401Z,6.38
2022-07-27T23:58:46.069Z,5.97
